Time;durP1;ratioP1;P1;durP2;ratioP2;P2;SDS_P1;SDS_P2;PMS_P1;PMS_P2;Temp;Humidity;BMP_temperature;BMP_pressure;BME280_temperature;BME280_humidity;BME280_pressure;Samples;Min_cycle;Max_cycle;Signal;HPM_P1;HPM_P2
2021/09/09 00:00:28;;;;;;;1.58;1.15;;;18.60;75.40;;;;;;4700501;30;20073;-82
2021/09/09 00:02:53;;;;;;;1.65;1.20;;;18.60;75.50;;;;;;4708120;30;20534;-84
2021/09/09 00:05:19;;;;;;;1.95;1.30;;;18.60;75.60;;;;;;4733957;30;20037;-83
2021/09/09 00:11:55;;;;;;;2.03;1.40;;;18.50;75.80;;;;;;4805071;29;20580;-86
2021/09/09 00:15:38;;;;;;;1.05;0.90;;;18.50;75.80;;;;;;4846596;29;20041;-87
2021/09/09 00:18:12;;;;;;;1.10;1.00;;;18.40;75.80;;;;;;4782315;29;20051;-86
2021/09/09 00:20:39;;;;;;;1.85;1.20;;;18.40;75.80;;;;;;4769679;29;20051;-87
2021/09/09 00:23:05;;;;;;;1.88;1.40;;;18.40;76.00;;;;;;4771078;30;20046;-85
2021/09/09 00:25:31;;;;;;;1.58;1.33;;;18.30;76.00;;;;;;4787175;29;20475;-85
2021/09/09 00:28:23;;;;;;;1.65;1.25;;;18.30;76.10;;;;;;4791147;29;20075;-85
2021/09/09 00:31:34;;;;;;;1.73;1.40;;;18.20;76.10;;;;;;4766788;30;20084;-89
2021/09/09 00:34:00;;;;;;;1.45;1.13;;;18.20;76.20;;;;;;4733758;30;20450;-85
2021/09/09 00:36:26;;;;;;;1.92;1.25;;;18.20;76.10;;;;;;4749452;30;20049;-85
2021/09/09 00:38:51;;;;;;;1.77;1.33;;;18.20;76.10;;;;;;4748915;30;20494;-84
2021/09/09 00:41:17;;;;;;;1.67;1.25;;;18.10;76.20;;;;;;4735781;30;20060;-82
2021/09/09 00:43:43;;;;;;;1.48;1.17;;;18.20;76.20;;;;;;4770289;30;20047;-81
2021/09/09 00:46:08;;;;;;;2.25;1.42;;;18.20;76.30;;;;;;4754964;30;20043;-82
2021/09/09 00:48:34;;;;;;;1.70;1.23;;;18.20;76.40;;;;;;4769456;30;20077;-82
2021/09/09 00:51:00;;;;;;;1.60;1.30;;;18.10;76.40;;;;;;4773351;29;20046;-85
2021/09/09 00:53:26;;;;;;;1.83;1.30;;;18.10;76.50;;;;;;4786865;29;20051;-83
2021/09/09 00:55:52;;;;;;;1.67;1.38;;;18.10;76.60;;;;;;4787674;29;20328;-87
2021/09/09 01:02:22;;;;;;;1.88;1.27;;;18.10;76.60;;;;;;4853243;29;20553;-83
2021/09/09 01:04:49;;;;;;;1.50;1.20;;;18.00;76.50;;;;;;4864676;29;20054;-83
2021/09/09 01:07:15;;;;;;;2.13;1.35;;;17.90;76.50;;;;;;4858836;29;20037;-83
2021/09/09 01:09:42;;;;;;;2.58;1.63;;;18.00;76.70;;;;;;4865102;29;20074;-83
2021/09/09 01:12:08;;;;;;;1.33;1.10;;;17.90;76.70;;;;;;4844261;29;20041;-83
2021/09/09 01:14:56;;;;;;;1.83;1.33;;;17.80;76.60;;;;;;4848687;29;20441;-89
2021/09/09 01:17:22;;;;;;;2.40;1.50;;;17.90;76.80;;;;;;4849021;29;20154;-86
2021/09/09 01:19:48;;;;;;;1.83;1.23;;;17.80;76.80;;;;;;4847642;29;20084;-85
2021/09/09 01:22:14;;;;;;;1.80;1.17;;;17.80;76.80;;;;;;4849597;29;20074;-85
2021/09/09 01:24:42;;;;;;;2.00;1.10;;;17.70;76.80;;;;;;4846674;29;20044;-85
2021/09/09 01:27:08;;;;;;;1.52;1.15;;;17.80;77.00;;;;;;4848481;29;20498;-85
2021/09/09 01:29:38;;;;;;;1.70;1.40;;;17.80;77.00;;;;;;4846424;29;20072;-86
2021/09/09 01:32:05;;;;;;;1.73;1.40;;;17.70;77.00;;;;;;4833195;29;20374;-86
2021/09/09 01:34:31;;;;;;;1.73;1.38;;;17.70;77.10;;;;;;4848451;29;20064;-85
2021/09/09 01:36:58;;;;;;;1.63;1.27;;;17.70;77.20;;;;;;4847286;29;20040;-85
2021/09/09 01:39:24;;;;;;;1.27;0.98;;;17.70;77.20;;;;;;4883152;29;20048;-86
2021/09/09 01:41:51;;;;;;;2.13;1.40;;;17.70;77.20;;;;;;4866328;29;20045;-85
2021/09/09 01:44:18;;;;;;;1.63;1.10;;;17.70;77.30;;;;;;4882886;29;20496;-85
2021/09/09 01:46:44;;;;;;;1.90;1.33;;;17.60;77.20;;;;;;4880916;29;20037;-85
2021/09/09 01:49:10;;;;;;;2.38;1.55;;;17.70;77.30;;;;;;4854958;29;20124;-86
2021/09/09 01:51:36;;;;;;;1.98;1.30;;;17.60;77.30;;;;;;4888346;29;20117;-85
2021/09/09 01:54:02;;;;;;;2.35;1.25;;;17.60;77.30;;;;;;4889501;29;20345;-85
2021/09/09 01:56:28;;;;;;;1.67;1.25;;;17.60;77.40;;;;;;4874410;29;20036;-85
2021/09/09 01:58:54;;;;;;;2.03;1.40;;;17.50;77.40;;;;;;4867402;29;20052;-85
2021/09/09 02:01:22;;;;;;;1.50;1.15;;;17.60;77.50;;;;;;4884577;29;20041;-85
2021/09/09 02:03:48;;;;;;;1.80;1.40;;;17.50;77.50;;;;;;4885097;29;20077;-86
2021/09/09 02:06:14;;;;;;;1.67;1.27;;;17.40;77.50;;;;;;4868335;29;20093;-85
2021/09/09 02:08:40;;;;;;;1.70;1.40;;;17.50;77.60;;;;;;4836608;29;20033;-86
2021/09/09 02:11:06;;;;;;;1.67;1.30;;;17.50;77.70;;;;;;4883680;29;20472;-85
2021/09/09 02:13:33;;;;;;;2.38;1.52;;;17.50;77.70;;;;;;4886833;29;20112;-86
2021/09/09 02:15:59;;;;;;;1.50;1.08;;;17.50;77.70;;;;;;4887985;29;20396;-86
2021/09/09 02:18:25;;;;;;;1.92;1.40;;;17.50;77.80;;;;;;4889691;29;20044;-85
2021/09/09 02:20:51;;;;;;;2.13;1.55;;;17.40;78.40;;;;;;4857324;29;20045;-86
2021/09/09 02:23:17;;;;;;;2.05;1.27;;;17.30;77.80;;;;;;4869195;29;20061;-86
2021/09/09 02:25:42;;;;;;;1.50;1.15;;;17.40;77.80;;;;;;4857340;29;20048;-85
2021/09/09 02:28:08;;;;;;;1.95;1.40;;;17.30;77.90;;;;;;4886269;29;20041;-86
2021/09/09 02:30:35;;;;;;;1.48;1.10;;;17.30;77.90;;;;;;4871548;29;20088;-86
2021/09/09 02:33:00;;;;;;;2.30;1.48;;;17.30;77.90;;;;;;4888362;29;20116;-86
2021/09/09 02:35:26;;;;;;;2.10;1.40;;;17.30;77.90;;;;;;4893051;29;20049;-86
2021/09/09 02:37:52;;;;;;;2.15;1.45;;;17.30;78.00;;;;;;4880421;29;20021;-84
2021/09/09 02:40:18;;;;;;;2.33;1.55;;;17.30;77.90;;;;;;4882954;29;20041;-85
2021/09/09 02:42:44;;;;;;;1.63;1.30;;;17.30;78.00;;;;;;4883742;29;20052;-85
2021/09/09 02:45:11;;;;;;;1.75;1.38;;;17.40;78.10;;;;;;4879565;29;20037;-85
2021/09/09 02:47:37;;;;;;;2.30;1.50;;;17.20;78.20;;;;;;4897491;29;20033;-85
2021/09/09 02:50:05;;;;;;;1.73;1.30;;;17.20;78.30;;;;;;4897685;29;20139;-85
2021/09/09 02:52:31;;;;;;;2.42;1.60;;;17.20;78.40;;;;;;4883732;29;20055;-86
2021/09/09 02:54:56;;;;;;;2.47;1.58;;;17.10;78.30;;;;;;4885004;29;20057;-85
2021/09/09 02:57:22;;;;;;;2.13;1.35;;;17.10;78.40;;;;;;4883653;29;20066;-86
2021/09/09 02:59:48;;;;;;;2.13;1.17;;;17.10;78.50;;;;;;4868274;29;20053;-86
2021/09/09 03:02:14;;;;;;;1.48;1.13;;;17.10;78.60;;;;;;4896900;29;20041;-85
2021/09/09 03:04:40;;;;;;;2.53;1.63;;;17.00;78.60;;;;;;4880531;29;20499;-85
2021/09/09 03:07:05;;;;;;;2.65;1.65;;;17.00;78.70;;;;;;4896478;29;20057;-86
2021/09/09 03:09:31;;;;;;;1.40;0.90;;;16.90;78.70;;;;;;4897987;29;20428;-85
2021/09/09 03:11:57;;;;;;;1.85;1.30;;;16.80;78.70;;;;;;4877706;29;20392;-85
2021/09/09 03:14:23;;;;;;;1.60;1.30;;;16.80;78.80;;;;;;4873154;29;20041;-86
2021/09/09 03:16:48;;;;;;;1.60;1.38;;;16.80;78.80;;;;;;4896165;29;20029;-85
2021/09/09 03:19:14;;;;;;;2.03;1.55;;;16.90;78.90;;;;;;4899954;29;20049;-85
2021/09/09 03:21:40;;;;;;;2.92;1.73;;;16.80;78.80;;;;;;4885001;29;20057;-85
2021/09/09 03:24:06;;;;;;;3.33;1.92;;;16.90;78.90;;;;;;4868958;29;20102;-85
2021/09/09 03:26:31;;;;;;;1.83;1.30;;;16.80;78.90;;;;;;4883695;29;20045;-86
2021/09/09 03:28:57;;;;;;;1.90;1.40;;;16.80;79.00;;;;;;4897492;29;20029;-86
2021/09/09 03:31:23;;;;;;;2.00;1.50;;;16.80;79.00;;;;;;4877798;29;20025;-85
2021/09/09 03:33:49;;;;;;;2.42;1.50;;;16.80;79.00;;;;;;4877910;29;20041;-85
2021/09/09 03:36:15;;;;;;;1.90;1.30;;;16.90;79.10;;;;;;4891396;29;20488;-85
2021/09/09 03:38:40;;;;;;;1.95;1.35;;;16.80;79.10;;;;;;4877128;29;20064;-85
2021/09/09 03:41:08;;;;;;;2.25;1.42;;;16.70;79.00;;;;;;4862992;29;20056;-85
2021/09/09 03:43:34;;;;;;;2.28;1.35;;;16.70;79.10;;;;;;4895299;29;20045;-85
2021/09/09 03:46:00;;;;;;;2.35;1.23;;;16.70;79.10;;;;;;4895748;29;20071;-85
2021/09/09 03:48:25;;;;;;;2.03;1.20;;;16.70;79.10;;;;;;4896201;29;20033;-85
2021/09/09 03:50:51;;;;;;;1.67;1.20;;;16.70;79.20;;;;;;4879996;29;20094;-85
2021/09/09 03:53:17;;;;;;;2.00;1.35;;;16.60;79.20;;;;;;4895592;29;20100;-86
2021/09/09 03:55:43;;;;;;;2.28;1.40;;;16.60;79.30;;;;;;4866538;29;20022;-84
2021/09/09 03:58:08;;;;;;;1.95;1.40;;;16.70;79.40;;;;;;4880901;29;20056;-85
2021/09/09 04:00:35;;;;;;;1.73;1.30;;;16.50;79.30;;;;;;4883815;29;20057;-85
2021/09/09 04:03:02;;;;;;;1.58;1.15;;;16.50;79.40;;;;;;4855693;29;20163;-85
2021/09/09 04:05:29;;;;;;;2.20;1.30;;;16.50;79.40;;;;;;4886333;29;20064;-85
2021/09/09 04:07:55;;;;;;;1.90;1.38;;;16.50;79.50;;;;;;4886158;29;20033;-85
2021/09/09 04:10:21;;;;;;;1.85;1.40;;;16.50;79.50;;;;;;4885180;29;20093;-85
2021/09/09 04:12:47;;;;;;;2.17;1.48;;;16.50;79.50;;;;;;4871528;29;20029;-86
2021/09/09 04:15:13;;;;;;;2.53;1.50;;;16.60;79.60;;;;;;4887787;29;20033;-85
2021/09/09 04:17:39;;;;;;;2.38;1.25;;;16.40;79.50;;;;;;4903562;29;20053;-85
2021/09/09 04:20:05;;;;;;;1.77;1.40;;;16.50;79.50;;;;;;4867054;29;20081;-86
2021/09/09 04:22:31;;;;;;;2.03;1.60;;;16.50;79.50;;;;;;4891659;29;20021;-84
2021/09/09 04:24:58;;;;;;;2.42;1.60;;;16.50;79.50;;;;;;4864555;29;20076;-85
2021/09/09 04:27:24;;;;;;;1.70;1.30;;;16.50;79.50;;;;;;4876747;29;20049;-85
2021/09/09 04:29:52;;;;;;;2.35;1.55;;;16.40;79.50;;;;;;4876998;29;20039;-85
2021/09/09 04:32:18;;;;;;;2.08;1.48;;;16.50;79.60;;;;;;4880634;29;20063;-85
2021/09/09 04:34:44;;;;;;;1.33;1.20;;;16.40;79.60;;;;;;4893352;29;20033;-84
2021/09/09 04:37:09;;;;;;;2.20;1.40;;;16.40;79.60;;;;;;4871675;29;20526;-83
2021/09/09 04:39:35;;;;;;;1.67;1.23;;;16.40;79.60;;;;;;4884167;29;20041;-84
2021/09/09 04:42:01;;;;;;;1.42;1.20;;;16.40;79.60;;;;;;4883998;29;20041;-84
2021/09/09 04:44:27;;;;;;;1.70;1.20;;;16.40;79.60;;;;;;4889273;29;20056;-85
2021/09/09 04:46:53;;;;;;;2.55;1.60;;;16.40;79.70;;;;;;4874409;29;20029;-84
2021/09/09 04:49:19;;;;;;;2.25;1.45;;;16.30;79.80;;;;;;4871920;29;20400;-84
2021/09/09 04:51:45;;;;;;;2.10;1.38;;;16.30;79.80;;;;;;4868024;29;20044;-84
2021/09/09 04:54:11;;;;;;;2.47;1.60;;;16.30;80.00;;;;;;4868044;29;20059;-85
2021/09/09 04:56:36;;;;;;;1.90;1.40;;;16.30;80.00;;;;;;4884955;29;20029;-84
2021/09/09 04:59:05;;;;;;;1.80;1.30;;;16.20;80.00;;;;;;4870727;29;20119;-83
2021/09/09 05:01:30;;;;;;;1.60;1.10;;;16.20;80.00;;;;;;4870082;29;20141;-85
2021/09/09 05:03:56;;;;;;;1.67;1.20;;;16.20;80.00;;;;;;4870984;29;20053;-84
2021/09/09 05:06:22;;;;;;;2.08;1.60;;;16.20;80.20;;;;;;4871344;29;20033;-84
2021/09/09 05:08:47;;;;;;;2.35;1.42;;;16.20;80.20;;;;;;4890781;29;20049;-84
2021/09/09 05:11:16;;;;;;;2.05;1.35;;;16.20;80.20;;;;;;4889751;29;20045;-84
2021/09/09 05:13:43;;;;;;;2.05;1.50;;;16.10;80.20;;;;;;4889497;29;20049;-84
2021/09/09 05:16:08;;;;;;;2.53;1.55;;;16.10;80.20;;;;;;4891650;29;20041;-85
2021/09/09 05:18:34;;;;;;;2.05;1.48;;;16.10;80.20;;;;;;4872387;29;20033;-84
2021/09/09 05:21:00;;;;;;;1.77;1.40;;;16.10;80.30;;;;;;4888783;29;20056;-84
2021/09/09 05:23:26;;;;;;;1.80;1.40;;;16.10;80.30;;;;;;4890144;29;20514;-84
2021/09/09 05:25:52;;;;;;;2.00;1.30;;;16.00;80.20;;;;;;4874917;29;20480;-84
2021/09/09 05:28:18;;;;;;;1.95;1.48;;;16.10;80.30;;;;;;4876408;29;20104;-84
2021/09/09 05:30:44;;;;;;;2.17;1.40;;;16.10;80.30;;;;;;4876041;29;20033;-84
2021/09/09 05:33:09;;;;;;;2.05;1.42;;;16.10;80.30;;;;;;4875527;29;20140;-83
2021/09/09 05:35:35;;;;;;;1.73;1.27;;;16.10;80.40;;;;;;4874862;29;20073;-84
2021/09/09 05:38:01;;;;;;;2.60;1.60;;;16.10;80.40;;;;;;4891294;29;20041;-84
2021/09/09 05:40:27;;;;;;;3.05;1.58;;;16.10;80.40;;;;;;4871598;29;20109;-85
2021/09/09 05:42:53;;;;;;;1.77;1.40;;;16.10;80.40;;;;;;4856310;29;20057;-85
2021/09/09 05:45:19;;;;;;;2.28;1.70;;;16.20;80.40;;;;;;4856022;29;20036;-85
2021/09/09 05:47:45;;;;;;;2.08;1.35;;;16.20;80.30;;;;;;4873041;29;20109;-84
2021/09/09 05:50:11;;;;;;;2.10;1.60;;;16.20;80.20;;;;;;4862198;29;20043;-84
2021/09/09 05:52:37;;;;;;;2.10;1.40;;;16.20;80.00;;;;;;4892088;29;20033;-84
2021/09/09 05:55:04;;;;;;;2.78;2.00;;;16.20;79.90;;;;;;4860346;29;20041;-84
2021/09/09 05:57:29;;;;;;;2.20;1.45;;;16.30;80.00;;;;;;4872150;29;20041;-84
2021/09/09 05:59:56;;;;;;;2.38;1.40;;;16.30;80.00;;;;;;4886149;29;20656;-84
2021/09/09 06:02:26;;;;;;;2.72;1.75;;;16.30;80.00;;;;;;4887784;29;20045;-83
2021/09/09 06:04:53;;;;;;;2.20;1.55;;;16.30;79.90;;;;;;4888482;29;20038;-84
2021/09/09 06:07:19;;;;;;;1.90;1.50;;;16.40;79.90;;;;;;4875901;29;20041;-84
2021/09/09 06:09:44;;;;;;;1.95;1.42;;;16.40;79.90;;;;;;4858539;29;20495;-83
2021/09/09 06:12:10;;;;;;;2.38;1.63;;;16.40;79.90;;;;;;4888245;29;20563;-83
2021/09/09 06:15:19;;;;;;;2.47;1.60;;;16.40;79.90;;;;;;4885704;29;20048;-86
2021/09/09 06:21:03;;;;;;;2.80;1.80;;;16.50;79.80;;;;;;4838006;29;20125;-80
2021/09/09 06:23:29;;;;;;;2.72;1.65;;;16.50;79.70;;;;;;4826662;29;20050;-80
2021/09/09 06:25:55;;;;;;;2.47;1.52;;;16.50;79.60;;;;;;4839720;29;20489;-80
2021/09/09 06:28:21;;;;;;;2.20;1.50;;;16.50;79.50;;;;;;4824534;29;20133;-81
2021/09/09 06:30:46;;;;;;;2.92;1.70;;;16.60;79.40;;;;;;4839788;29;20053;-81
2021/09/09 06:33:12;;;;;;;2.45;1.63;;;16.70;79.40;;;;;;4824757;29;20065;-81
2021/09/09 06:35:38;;;;;;;2.25;1.65;;;16.70;79.40;;;;;;4840249;29;20129;-81
2021/09/09 06:38:11;;;;;;;2.78;1.67;;;16.80;79.40;;;;;;4824725;29;20096;-84
2021/09/09 06:40:37;;;;;;;3.00;1.80;;;16.70;79.30;;;;;;4840216;29;20141;-78
2021/09/09 06:43:03;;;;;;;2.35;1.52;;;16.80;79.40;;;;;;4840357;29;20099;-79
2021/09/09 06:45:28;;;;;;;2.17;1.55;;;16.80;79.30;;;;;;4839362;29;20050;-79
2021/09/09 06:47:54;;;;;;;2.17;1.50;;;16.90;79.30;;;;;;4825355;29;20041;-78
2021/09/09 06:50:20;;;;;;;2.90;1.75;;;16.90;79.30;;;;;;4839938;29;20030;-80
2021/09/09 06:52:46;;;;;;;2.15;1.50;;;16.90;79.20;;;;;;4840277;29;20944;-79
2021/09/09 06:55:12;;;;;;;2.28;1.63;;;17.00;79.30;;;;;;4828178;29;20049;-80
2021/09/09 06:57:38;;;;;;;2.05;1.58;;;17.00;79.30;;;;;;4857943;29;20044;-79
2021/09/09 07:00:05;;;;;;;2.40;1.60;;;17.00;79.90;;;;;;4860124;29;20106;-78
2021/09/09 07:02:30;;;;;;;2.90;2.05;;;17.10;79.30;;;;;;4842537;29;20117;-78
2021/09/09 07:04:58;;;;;;;2.40;1.60;;;17.10;79.20;;;;;;4831047;29;20473;-79
2021/09/09 07:07:24;;;;;;;2.47;1.70;;;17.20;79.90;;;;;;4855664;29;20062;-78
2021/09/09 07:09:50;;;;;;;2.65;1.60;;;17.30;79.20;;;;;;4824655;29;20186;-82
2021/09/09 07:12:16;;;;;;;2.05;1.40;;;17.30;79.10;;;;;;4821044;29;20077;-81
2021/09/09 07:14:42;;;;;;;3.00;1.88;;;17.30;79.00;;;;;;4826278;29;20155;-78
2021/09/09 07:17:08;;;;;;;2.60;1.60;;;17.40;79.00;;;;;;4847842;29;20046;-79
2021/09/09 07:19:33;;;;;;;2.40;1.60;;;17.40;78.90;;;;;;4841890;29;20075;-79
2021/09/09 07:21:59;;;;;;;2.47;1.52;;;17.40;78.80;;;;;;4839498;29;20594;-78
2021/09/09 07:24:25;;;;;;;1.52;1.27;;;17.40;78.80;;;;;;4829146;29;20042;-79
2021/09/09 07:26:56;;;;;;;2.13;1.48;;;17.50;78.80;;;;;;4839028;29;20045;-81
2021/09/09 07:29:23;;;;;;;2.55;1.55;;;17.60;78.80;;;;;;4809264;29;20501;-79
2021/09/09 07:31:49;;;;;;;1.52;1.30;;;17.60;78.80;;;;;;4840631;29;20058;-79
2021/09/09 07:34:57;;;;;;;2.47;1.80;;;17.70;78.80;;;;;;4843161;29;20061;-81
2021/09/09 07:37:23;;;;;;;3.20;1.88;;;17.80;78.70;;;;;;4824263;29;20054;-79
2021/09/09 07:39:49;;;;;;;3.15;1.60;;;17.80;78.60;;;;;;4824169;29;20481;-80
2021/09/09 07:42:15;;;;;;;2.85;1.38;;;17.90;78.50;;;;;;4845122;29;20565;-79
2021/09/09 07:44:41;;;;;;;2.92;1.90;;;17.90;78.40;;;;;;4879976;29;20045;-79
2021/09/09 07:47:07;;;;;;;2.35;1.38;;;18.00;78.50;;;;;;4882199;29;20037;-78
2021/09/09 07:49:33;;;;;;;1.45;1.33;;;18.10;78.40;;;;;;4884835;29;20052;-80
2021/09/09 07:51:58;;;;;;;1.80;1.30;;;18.10;78.30;;;;;;4881842;29;20127;-78
2021/09/09 07:54:29;;;;;;;2.03;1.58;;;18.20;78.20;;;;;;4882454;29;20065;-81
2021/09/09 08:08:41;;;;;;;1.67;1.20;;;18.90;77.30;;;;;;4878182;29;20431;-82
2021/09/09 08:15:07;;;;;;;1.90;1.40;;;19.20;77.00;;;;;;4876382;29;20152;-81
2021/09/09 08:17:33;;;;;;;1.83;1.30;;;19.40;76.70;;;;;;4888662;29;20045;-81
2021/09/09 08:20:00;;;;;;;1.42;1.20;;;19.50;76.50;;;;;;4886815;29;20481;-81
2021/09/09 08:22:26;;;;;;;2.13;1.45;;;19.70;76.40;;;;;;4884796;29;20045;-81
2021/09/09 08:24:53;;;;;;;1.85;1.42;;;19.80;76.30;;;;;;4868335;29;20088;-78
2021/09/09 08:27:19;;;;;;;2.08;1.40;;;19.90;76.90;;;;;;4883262;29;20173;-80
2021/09/09 08:29:45;;;;;;;1.55;1.42;;;20.00;76.10;;;;;;4864600;29;20392;-80
2021/09/09 08:32:11;;;;;;;1.65;1.38;;;20.20;75.90;;;;;;4881418;29;20045;-79
2021/09/09 08:34:37;;;;;;;3.20;2.00;;;20.20;75.80;;;;;;4889252;29;20116;-81
2021/09/09 08:37:05;;;;;;;2.85;1.73;;;20.30;76.50;;;;;;4888180;29;20041;-82
2021/09/09 08:40:42;;;;;;;4.20;1.80;;;20.40;75.80;;;;;;4861026;29;20095;-79
2021/09/09 08:43:31;;;;;;;2.03;1.50;;;20.50;75.60;;;;;;4799472;29;20062;-77
2021/09/09 08:46:01;;;;;;;2.08;1.52;;;20.70;75.50;;;;;;4749948;30;20197;-77
2021/09/09 08:48:28;;;;;;;2.17;1.58;;;20.70;75.40;;;;;;4754346;30;20055;-76
2021/09/09 08:50:54;;;;;;;1.73;1.30;;;20.80;75.40;;;;;;4769992;30;20040;-80
2021/09/09 08:57:56;;;;;;;2.40;1.60;;;21.10;75.20;;;;;;4767230;30;20050;-85
2021/09/09 09:00:22;;;;;;;2.03;1.48;;;21.20;74.80;;;;;;4769064;30;20143;-84
2021/09/09 09:02:50;;;;;;;1.63;1.30;;;21.30;74.80;;;;;;4773718;30;20051;-80
2021/09/09 09:05:24;;;;;;;2.20;1.50;;;21.40;74.80;;;;;;4768074;30;20040;-82
2021/09/09 09:08:53;;;;;;;2.40;1.60;;;21.50;74.70;;;;;;4763171;30;20133;-85
2021/09/09 09:11:51;;;;;;;3.17;1.92;;;21.60;74.50;;;;;;4786398;30;20043;-85
2021/09/09 09:15:06;;;;;;;2.40;1.70;;;21.60;74.30;;;;;;4753794;29;20054;-82
2021/09/09 09:17:32;;;;;;;1.95;1.70;;;21.80;74.10;;;;;;4807511;29;20133;-80
2021/09/09 09:20:11;;;;;;;2.38;1.80;;;21.80;74.00;;;;;;4858515;29;22378;-80
2021/09/09 09:22:37;;;;;;;1.70;1.30;;;21.90;73.90;;;;;;4842486;29;20524;-80
2021/09/09 09:25:03;;;;;;;2.20;1.70;;;22.00;73.90;;;;;;4844269;29;20154;-83
2021/09/09 09:28:13;;;;;;;4.07;1.75;;;22.10;73.80;;;;;;4827823;29;20046;-83
2021/09/09 09:31:14;;;;;;;1.48;1.23;;;22.00;73.70;;;;;;4840382;29;20883;-81
2021/09/09 09:33:44;;;;;;;1.98;1.40;;;22.20;73.80;;;;;;4754896;30;20052;-82
2021/09/09 09:36:17;;;;;;;2.00;1.50;;;22.30;73.80;;;;;;4735722;30;20052;-82
2021/09/09 09:38:44;;;;;;;3.17;1.90;;;22.50;73.70;;;;;;4753073;30;20052;-81
2021/09/09 09:41:16;;;;;;;1.77;1.50;;;22.50;73.40;;;;;;4751215;30;20044;-83
2021/09/09 09:44:38;;;;;;;2.33;1.60;;;22.60;73.20;;;;;;4736635;30;20385;-81
2021/09/09 09:46:51;;;;;;;1.58;1.20;;;22.80;73.10;;;;;;4781982;29;20055;-82
2021/09/09 09:49:29;;;;;;;3.13;1.90;;;22.80;72.80;;;;;;4786418;29;20058;-79
2021/09/09 09:52:41;;;;;;;3.53;2.10;;;23.00;72.60;;;;;;4783132;29;20047;-79
2021/09/09 09:55:09;;;;;;;2.53;1.73;;;23.00;72.40;;;;;;4795513;29;20046;-79
2021/09/09 09:57:51;;;;;;;1.83;1.30;;;23.10;72.40;;;;;;4807907;29;20533;-81
2021/09/09 10:07:50;;;;;;;1.25;1.10;;;23.40;72.20;;;;;;4841373;29;20057;-82
2021/09/09 10:10:45;;;;;;;1.60;1.33;;;23.40;72.10;;;;;;4846411;29;20038;-86
2021/09/09 10:20:44;;;;;;;1.70;1.40;;;23.50;72.00;;;;;;4711161;30;20045;-79
2021/09/09 10:23:13;;;;;;;2.33;1.60;;;23.50;72.00;;;;;;4671782;30;20057;-79
2021/09/09 10:25:49;;;;;;;1.87;1.53;;;23.50;72.10;;;;;;4671775;30;20072;-79
2021/09/09 10:28:49;;;;;;;3.20;1.98;;;23.60;72.00;;;;;;4673034;30;20112;-80
2021/09/09 10:31:23;;;;;;;2.53;1.80;;;23.60;72.00;;;;;;4700342;30;20140;-82
2021/09/09 10:34:24;;;;;;;3.30;2.30;;;23.70;71.80;;;;;;4700363;30;20137;-85
2021/09/09 10:36:50;;;;;;;3.88;2.58;;;23.80;71.70;;;;;;4718004;30;20109;-82
2021/09/09 10:39:52;;;;;;;2.65;2.03;;;23.80;71.50;;;;;;4704417;30;20575;-80
2021/09/09 10:42:33;;;;;;;3.55;2.03;;;23.90;71.50;;;;;;4715104;30;20509;-80
2021/09/09 10:45:03;;;;;;;2.35;1.85;;;23.90;71.50;;;;;;4714944;30;20060;-81
2021/09/09 10:48:45;;;;;;;3.28;2.20;;;24.00;71.50;;;;;;4700200;30;20138;-82
2021/09/09 10:51:43;;;;;;;3.30;2.10;;;24.00;71.50;;;;;;4694499;30;20045;-81
2021/09/09 10:54:16;;;;;;;3.13;2.07;;;24.10;71.40;;;;;;4728979;30;20047;-81
2021/09/09 10:56:42;;;;;;;3.90;2.58;;;24.20;71.30;;;;;;4790508;29;20129;-80
2021/09/09 10:59:11;;;;;;;3.78;2.38;;;24.10;71.00;;;;;;4823165;29;20101;-79
2021/09/09 11:01:41;;;;;;;2.72;2.10;;;24.30;71.00;;;;;;4795274;29;20073;-77
2021/09/09 11:04:23;;;;;;;2.58;1.90;;;24.20;70.90;;;;;;4820534;29;20026;-77
2021/09/09 11:06:49;;;;;;;2.45;2.03;;;24.30;71.00;;;;;;4802802;29;20034;-82
2021/09/09 11:09:14;;;;;;;2.25;1.70;;;24.30;70.90;;;;;;4809065;29;20099;-82
2021/09/09 11:11:46;;;;;;;2.20;1.60;;;24.40;70.70;;;;;;4821504;29;20125;-78
2021/09/09 11:14:12;;;;;;;2.20;1.60;;;24.50;70.60;;;;;;4809069;29;20043;-79
2021/09/09 11:16:39;;;;;;;2.70;1.95;;;24.60;70.60;;;;;;4795496;29;20077;-81
2021/09/09 11:19:07;;;;;;;2.55;1.83;;;24.70;70.50;;;;;;4811797;29;20042;-80
2021/09/09 11:21:38;;;;;;;4.13;2.47;;;24.70;70.20;;;;;;4809221;29;20062;-82
2021/09/09 11:24:08;;;;;;;2.67;1.98;;;24.90;70.10;;;;;;4814345;29;20742;-83
2021/09/09 11:26:36;;;;;;;3.83;2.40;;;24.90;69.80;;;;;;4836579;29;20049;-81
2021/09/09 11:29:03;;;;;;;4.07;2.78;;;25.00;69.70;;;;;;4870535;29;20282;-79
2021/09/09 11:31:31;;;;;;;3.13;2.50;;;25.00;69.60;;;;;;4877309;29;20123;-80
2021/09/09 11:34:00;;;;;;;3.30;2.60;;;25.20;69.50;;;;;;4877589;29;20112;-81
2021/09/09 11:36:28;;;;;;;3.83;2.38;;;25.20;69.30;;;;;;4862637;29;20445;-81
2021/09/09 11:38:56;;;;;;;4.72;2.75;;;25.30;69.20;;;;;;4864830;29;20041;-82
2021/09/09 11:41:23;;;;;;;5.88;3.00;;;25.40;69.00;;;;;;4879324;29;20481;-78
2021/09/09 11:43:56;;;;;;;5.63;3.38;;;25.60;68.80;;;;;;4882983;29;20037;-77
2021/09/09 11:46:29;;;;;;;4.25;3.08;;;25.60;68.60;;;;;;4877558;29;20131;-83
2021/09/09 11:49:16;;;;;;;6.70;3.53;;;25.70;68.60;;;;;;4860680;29;20057;-83
2021/09/09 11:51:46;;;;;;;3.67;2.83;;;25.70;68.50;;;;;;4839400;29;20062;-80
2021/09/09 11:54:45;;;;;;;4.22;3.03;;;25.70;68.60;;;;;;4821954;29;20513;-81
2021/09/09 11:57:16;;;;;;;4.53;3.10;;;25.70;68.80;;;;;;4833887;29;20183;-80
2021/09/09 11:59:57;;;;;;;;;;;25.70;68.80;;;;;;4820502;29;20102;-81
2021/09/09 12:02:29;;;;;;;3.88;2.67;;;25.70;68.90;;;;;;4837285;29;19944;-83
2021/09/09 12:04:56;;;;;;;3.92;2.85;;;25.60;69.00;;;;;;4800946;29;20047;-81
2021/09/09 12:07:25;;;;;;;4.20;3.10;;;25.70;69.10;;;;;;4805601;29;20051;-81
2021/09/09 12:09:56;;;;;;;3.90;2.70;;;25.80;69.00;;;;;;4812103;29;20059;-80
2021/09/09 12:15:36;;;;;;;3.83;2.65;;;26.00;69.00;;;;;;4787292;29;20575;-83
2021/09/09 12:18:10;;;;;;;4.95;3.17;;;26.10;68.60;;;;;;4819945;29;20059;-83
2021/09/09 12:20:38;;;;;;;4.20;3.08;;;26.30;68.20;;;;;;4825795;29;20058;-83
2021/09/09 12:23:04;;;;;;;4.07;3.03;;;26.50;68.00;;;;;;4828145;29;20060;-80
2021/09/09 12:25:34;;;;;;;4.63;2.85;;;26.60;67.90;;;;;;4847270;29;20505;-81
2021/09/09 12:28:11;;;;;;;3.95;2.88;;;26.60;67.80;;;;;;4843531;29;20144;-78
2021/09/09 12:30:44;;;;;;;2.70;2.20;;;26.70;67.80;;;;;;4845278;29;20038;-80
2021/09/09 12:33:24;;;;;;;3.20;2.20;;;26.70;67.80;;;;;;4842501;29;20439;-79
2021/09/09 12:36:18;;;;;;;3.40;2.47;;;26.70;67.90;;;;;;4851196;29;20121;-78
2021/09/09 12:38:46;;;;;;;3.03;2.40;;;26.80;68.00;;;;;;4831675;29;20054;-79
2021/09/09 12:41:28;;;;;;;2.85;2.17;;;26.80;68.10;;;;;;4846968;29;20113;-78
2021/09/09 12:44:12;;;;;;;3.03;2.30;;;26.80;68.10;;;;;;4860196;29;20080;-78
2021/09/09 12:46:42;;;;;;;4.75;2.95;;;26.70;68.20;;;;;;4845615;29;20497;-78
2021/09/09 12:49:12;;;;;;;2.92;2.28;;;26.70;68.30;;;;;;4855604;29;20124;-81
2021/09/09 12:51:43;;;;;;;3.70;2.72;;;26.70;68.50;;;;;;4884778;29;20045;-84
2021/09/09 12:54:10;;;;;;;3.65;2.63;;;26.70;68.40;;;;;;4880646;29;20136;-78
2021/09/09 12:56:49;;;;;;;3.50;2.45;;;26.80;68.30;;;;;;4881912;29;20041;-83
2021/09/09 12:59:16;;;;;;;2.83;2.20;;;26.90;68.20;;;;;;4886652;29;20060;-79
2021/09/09 13:01:43;;;;;;;3.55;2.53;;;26.70;68.30;;;;;;4863673;29;20060;-78
2021/09/09 13:04:09;;;;;;;5.13;3.17;;;26.70;68.50;;;;;;4889013;29;20140;-81
2021/09/09 13:06:35;;;;;;;4.32;2.70;;;26.60;68.50;;;;;;4879569;29;20124;-77
2021/09/09 13:09:01;;;;;;;2.85;2.28;;;26.70;68.60;;;;;;4879329;29;20045;-77
2021/09/09 13:11:27;;;;;;;5.40;2.88;;;26.70;68.80;;;;;;4880282;29;20044;-77
2021/09/09 13:13:53;;;;;;;4.13;2.67;;;26.60;68.80;;;;;;4879504;29;20089;-78
2021/09/09 13:16:19;;;;;;;4.20;2.97;;;26.60;68.80;;;;;;4879225;29;20045;-78
2021/09/09 13:18:45;;;;;;;4.95;3.30;;;26.60;68.90;;;;;;4879161;29;20049;-77
2021/09/09 13:21:17;;;;;;;4.47;3.47;;;26.70;68.90;;;;;;4878953;29;20461;-78
2021/09/09 13:23:43;;;;;;;4.22;3.10;;;26.70;68.70;;;;;;4880209;29;20036;-81
2021/09/09 13:26:10;;;;;;;3.47;2.60;;;26.70;68.70;;;;;;4863181;29;20029;-77
2021/09/09 13:28:39;;;;;;;3.70;2.65;;;26.60;68.70;;;;;;4878589;29;20041;-79
2021/09/09 13:31:07;;;;;;;4.07;2.65;;;26.50;68.90;;;;;;4863624;29;20068;-78
2021/09/09 13:33:40;;;;;;;5.65;3.55;;;26.50;69.00;;;;;;4863973;29;20105;-82
2021/09/09 13:36:05;;;;;;;4.20;3.00;;;26.60;69.10;;;;;;4804655;29;20161;-79
2021/09/09 13:38:31;;;;;;;3.97;2.80;;;26.60;68.90;;;;;;4804515;29;20129;-79
2021/09/09 13:40:57;;;;;;;3.97;2.83;;;26.60;68.70;;;;;;4808037;29;20059;-79
2021/09/09 13:43:22;;;;;;;4.68;3.38;;;26.70;68.70;;;;;;4805889;29;20047;-77
2021/09/09 13:45:48;;;;;;;5.20;3.60;;;26.70;68.60;;;;;;4787674;29;20035;-77
2021/09/09 13:48:14;;;;;;;3.97;2.85;;;26.70;68.70;;;;;;4804259;29;20061;-76
2021/09/09 13:50:40;;;;;;;7.47;3.10;;;26.70;68.80;;;;;;4787333;29;20641;-77
2021/09/09 13:53:08;;;;;;;5.00;3.45;;;26.60;68.70;;;;;;4786587;29;20047;-82